TimeCST,TemperatureF,Dew PointF,Humidity,Sea Level PressureIn,VisibilityMPH,Wind Direction,Wind SpeedMPH,Gust SpeedMPH,PrecipitationIn,Events,Conditions,WindDirDegrees,DateUTC
12:53 AM,41.0,21.0,45,30.20,10.0,SSE,8.1,-,N/A,,Clear,150,2013-01-19 06:53:00
1:53 AM,44.1,21.9,42,30.20,10.0,Calm,Calm,-,N/A,,Clear,0,2013-01-19 07:53:00
2:53 AM,42.1,21.9,45,30.19,10.0,Variable,4.6,-,N/A,,Clear,0,2013-01-19 08:53:00
3:53 AM,39.9,24.1,53,30.18,10.0,SSE,6.9,-,N/A,,Clear,150,2013-01-19 09:53:00
4:53 AM,45.0,26.1,48,30.16,10.0,SSW,6.9,-,N/A,,Clear,210,2013-01-19 10:53:00
5:53 AM,46.0,26.1,46,30.16,10.0,SW,8.1,-,N/A,,Clear,220,2013-01-19 11:53:00
6:53 AM,46.9,28.0,48,30.16,10.0,SW,12.7,19.6,N/A,,Clear,230,2013-01-19 12:53:00
7:53 AM,48.0,28.9,48,30.17,10.0,WSW,10.4,21.9,N/A,,Clear,240,2013-01-19 13:53:00
8:53 AM,52.0,30.0,43,30.18,10.0,WSW,11.5,19.6,N/A,,Clear,240,2013-01-19 14:53:00
9:53 AM,57.0,30.9,37,30.18,10.0,WSW,12.7,18.4,N/A,,Clear,240,2013-01-19 15:53:00
10:53 AM,60.1,30.9,33,30.17,10.0,WSW,8.1,-,N/A,,Clear,250,2013-01-19 16:53:00
11:53 AM,61.0,30.9,32,30.14,10.0,WSW,16.1,23.0,N/A,,Clear,250,2013-01-19 17:53:00
12:53 PM,63.0,30.9,30,30.11,10.0,WSW,13.8,23.0,N/A,,Clear,240,2013-01-19 18:53:00
1:53 PM,64.0,30.0,28,30.07,10.0,WSW,12.7,19.6,N/A,,Clear,240,2013-01-19 19:53:00
2:53 PM,64.0,28.0,26,30.07,10.0,WSW,11.5,18.4,N/A,,Clear,240,2013-01-19 20:53:00
3:53 PM,63.0,28.9,28,30.09,10.0,WSW,11.5,18.4,N/A,,Clear,240,2013-01-19 21:53:00
4:53 PM,60.1,30.0,32,30.09,10.0,SW,9.2,16.1,N/A,,Clear,230,2013-01-19 22:53:00
5:53 PM,55.9,30.9,39,30.10,10.0,SSW,5.8,-,N/A,,Clear,210,2013-01-19 23:53:00
6:53 PM,54.0,32.0,43,30.13,10.0,Calm,Calm,-,N/A,,Clear,0,2013-01-20 00:53:00
7:53 PM,53.1,33.1,47,30.16,10.0,WSW,3.5,-,N/A,,Clear,240,2013-01-20 01:53:00
8:53 PM,48.9,33.1,54,30.17,10.0,NNW,3.5,-,N/A,,Clear,340,2013-01-20 02:53:00
9:53 PM,50.0,34.0,54,30.18,10.0,West,3.5,-,N/A,,Clear,270,2013-01-20 03:53:00
10:53 PM,48.9,33.1,54,30.18,10.0,WNW,4.6,-,N/A,,Clear,290,2013-01-20 04:53:00
11:53 PM,48.9,33.1,54,30.18,10.0,West,6.9,-,N/A,,Clear,280,2013-01-20 05:53:00